Time;durP1;ratioP1;P1;durP2;ratioP2;P2;SDS_P1;SDS_P2;PMS_P1;PMS_P2;Temp;Humidity;BMP_temperature;BMP_pressure;BME280_temperature;BME280_humidity;BME280_pressure;Samples;Min_cycle;Max_cycle;Signal;HPM_P1;HPM_P2
2022/02/27 00:00:20;;;;;;;7.68;5.47;;;5.10;92.90;;;;;;4971712;28;20055;-70
2022/02/27 00:02:47;;;;;;;91.45;61.38;;;5.10;92.90;;;;;;4957004;29;20051;-65
2022/02/27 00:05:14;;;;;;;30.75;21.60;;;5.20;93.00;;;;;;4956657;28;20074;-68
2022/02/27 00:07:41;;;;;;;82.82;61.28;;;5.20;92.70;;;;;;4971526;28;20059;-74
2022/02/27 00:10:09;;;;;;;17.15;8.65;;;5.20;92.80;;;;;;4955703;28;20079;-70
2022/02/27 00:12:39;;;;;;;11.77;6.38;;;5.20;92.90;;;;;;4955573;29;20122;-68
2022/02/27 00:15:07;;;;;;;9.40;4.82;;;5.20;92.90;;;;;;4964830;28;20047;-71
2022/02/27 00:17:38;;;;;;;12.30;4.55;;;5.10;93.10;;;;;;4955631;29;20051;-69
2022/02/27 00:20:06;;;;;;;12.05;7.15;;;5.10;93.20;;;;;;4923525;29;20047;-66
2022/02/27 00:22:34;;;;;;;23.40;14.75;;;5.10;93.60;;;;;;4976086;28;20058;-72
2022/02/27 00:25:01;;;;;;;14.73;9.75;;;5.10;93.30;;;;;;4956190;29;20326;-70
2022/02/27 00:27:28;;;;;;;9.85;4.78;;;5.10;93.60;;;;;;4955369;29;20122;-71
2022/02/27 00:29:55;;;;;;;12.25;4.68;;;5.10;93.50;;;;;;4969796;28;20061;-69
2022/02/27 00:32:23;;;;;;;9.95;4.25;;;5.00;93.60;;;;;;4955355;29;20055;-78
2022/02/27 00:34:50;;;;;;;10.27;3.83;;;5.00;93.70;;;;;;4986912;28;20066;-74
2022/02/27 00:37:17;;;;;;;16.33;5.32;;;5.00;93.80;;;;;;4957670;28;20098;-64
2022/02/27 00:39:46;;;;;;;17.20;10.50;;;5.00;94.40;;;;;;4958344;28;20085;-70
2022/02/27 00:42:14;;;;;;;9.07;4.38;;;5.10;93.80;;;;;;4966187;28;20054;-73
2022/02/27 00:44:41;;;;;;;10.57;4.88;;;5.10;93.50;;;;;;4956029;28;20061;-72
2022/02/27 00:47:08;;;;;;;14.38;5.97;;;5.10;93.60;;;;;;4955206;28;20058;-73
2022/02/27 00:49:36;;;;;;;10.25;4.40;;;5.00;93.60;;;;;;4954692;28;20491;-64
2022/02/27 00:52:03;;;;;;;11.32;4.28;;;5.00;93.70;;;;;;4984951;28;20079;-68
2022/02/27 00:54:30;;;;;;;24.88;14.07;;;5.00;93.70;;;;;;4952322;28;20051;-73
2022/02/27 00:56:58;;;;;;;9.77;5.18;;;5.00;93.70;;;;;;4985949;28;20494;-73
2022/02/27 00:59:25;;;;;;;9.38;5.07;;;5.00;93.60;;;;;;4968484;28;20059;-75
2022/02/27 01:01:54;;;;;;;14.07;5.32;;;5.00;93.60;;;;;;4945549;28;20142;-72
2022/02/27 01:04:22;;;;;;;11.02;4.95;;;5.00;93.60;;;;;;4955882;28;20063;-70
2022/02/27 01:06:48;;;;;;;11.80;4.78;;;5.00;93.60;;;;;;4970099;28;20051;-75
2022/02/27 01:09:18;;;;;;;14.23;4.82;;;4.90;93.50;;;;;;4985099;28;20406;-71
2022/02/27 01:11:45;;;;;;;14.30;7.32;;;4.90;93.60;;;;;;4954487;28;20043;-72
2022/02/27 01:14:13;;;;;;;165.65;110.15;;;4.90;93.70;;;;;;4973140;28;20408;-72
2022/02/27 01:16:40;;;;;;;17.60;10.00;;;4.90;93.60;;;;;;4968290;28;20526;-73
2022/02/27 01:19:09;;;;;;;17.48;7.82;;;4.90;93.60;;;;;;4958217;28;20047;-74
2022/02/27 01:21:38;;;;;;;99.00;47.47;;;4.90;93.50;;;;;;4985290;28;20055;-73
2022/02/27 01:24:05;;;;;;;57.40;29.25;;;4.80;93.50;;;;;;4956014;28;20089;-66
2022/02/27 01:26:36;;;;;;;86.10;42.63;;;4.90;93.50;;;;;;4983723;28;20071;-73
2022/02/27 01:29:05;;;;;;;259.88;123.65;;;4.90;93.80;;;;;;4938072;28;20055;-77
2022/02/27 01:31:32;;;;;;;228.10;110.72;;;4.80;93.20;;;;;;4952997;28;20047;-70
2022/02/27 01:33:59;;;;;;;33.47;14.85;;;4.80;93.20;;;;;;4954396;28;20079;-73
2022/02/27 01:36:26;;;;;;;21.20;9.07;;;4.80;93.20;;;;;;4952241;28;20082;-71
2022/02/27 01:38:53;;;;;;;16.27;6.63;;;4.70;93.20;;;;;;4954669;28;20055;-77
2022/02/27 01:45:11;;;;;;;25.60;10.13;;;4.70;93.20;;;;;;4955410;28;20078;-67
2022/02/27 01:47:39;;;;;;;18.13;8.85;;;4.70;93.10;;;;;;4968276;28;20057;-77
2022/02/27 01:50:08;;;;;;;15.73;8.75;;;4.70;92.80;;;;;;4954720;28;20043;-78
2022/02/27 01:52:35;;;;;;;11.80;4.88;;;4.70;92.80;;;;;;4955557;28;20511;-75
2022/02/27 01:55:02;;;;;;;11.30;4.38;;;4.60;92.70;;;;;;4953310;28;20047;-75
2022/02/27 01:57:30;;;;;;;10.43;4.95;;;4.60;92.60;;;;;;4985223;28;20509;-77
2022/02/27 01:59:57;;;;;;;10.48;4.05;;;4.60;92.60;;;;;;4969885;28;20518;-69
2022/02/27 02:02:24;;;;;;;13.15;4.78;;;4.60;92.40;;;;;;4958970;28;20047;-72
2022/02/27 02:04:51;;;;;;;12.23;4.85;;;4.60;92.40;;;;;;4925432;29;20055;-68
2022/02/27 02:07:18;;;;;;;12.98;4.22;;;4.60;92.30;;;;;;4957574;28;20055;-77
2022/02/27 02:09:45;;;;;;;19.23;6.30;;;4.50;92.20;;;;;;4955303;28;20138;-75
2022/02/27 02:12:12;;;;;;;13.95;7.75;;;4.60;92.10;;;;;;4963717;28;20130;-77
2022/02/27 02:14:39;;;;;;;11.50;6.10;;;4.60;92.10;;;;;;4983348;28;20071;-68
2022/02/27 02:17:07;;;;;;;12.75;5.05;;;4.60;91.70;;;;;;4965585;28;20043;-67
2022/02/27 02:19:34;;;;;;;11.43;3.78;;;4.60;91.70;;;;;;4964822;28;20050;-66
2022/02/27 02:22:03;;;;;;;10.75;4.65;;;4.50;91.70;;;;;;4950593;28;20054;-71
2022/02/27 02:24:31;;;;;;;10.60;3.78;;;4.50;91.60;;;;;;4939200;28;20078;-67
2022/02/27 02:26:58;;;;;;;9.60;3.90;;;4.40;91.50;;;;;;4959170;28;20074;-69
2022/02/27 02:29:25;;;;;;;9.68;4.70;;;4.40;92.10;;;;;;4971596;28;20051;-69
2022/02/27 02:31:54;;;;;;;13.27;5.63;;;4.40;91.60;;;;;;4947575;28;20137;-69
2022/02/27 02:34:21;;;;;;;8.43;4.32;;;4.30;91.50;;;;;;4954611;28;20502;-57
2022/02/27 02:36:48;;;;;;;35.92;24.65;;;4.30;91.70;;;;;;4959660;28;20047;-67
2022/02/27 02:39:17;;;;;;;24.15;15.95;;;4.40;94.00;;;;;;4963370;28;20059;-68
2022/02/27 02:41:44;;;;;;;10.70;5.53;;;4.50;91.10;;;;;;4955347;28;20097;-68
2022/02/27 02:44:11;;;;;;;14.23;4.60;;;4.40;91.10;;;;;;4955366;28;20061;-67
2022/02/27 02:46:39;;;;;;;7.70;4.78;;;4.30;91.30;;;;;;4966081;28;20046;-70
2022/02/27 02:49:06;;;;;;;11.90;4.85;;;4.30;91.40;;;;;;4957128;28;20495;-64
2022/02/27 02:51:33;;;;;;;97.07;66.70;;;4.30;91.20;;;;;;4953552;28;20047;-72
2022/02/27 02:54:00;;;;;;;37.65;26.48;;;4.40;91.40;;;;;;4971104;28;20047;-66
2022/02/27 02:56:27;;;;;;;42.80;15.57;;;4.40;91.00;;;;;;4957202;28;20476;-66
2022/02/27 02:58:54;;;;;;;34.15;15.45;;;4.30;91.20;;;;;;4982207;28;20055;-70
2022/02/27 03:01:24;;;;;;;22.38;10.02;;;4.20;91.20;;;;;;4932260;28;20426;-65
2022/02/27 03:03:52;;;;;;;10.23;5.40;;;4.20;91.30;;;;;;4970719;28;20055;-68
2022/02/27 03:06:19;;;;;;;17.70;8.95;;;4.10;91.60;;;;;;4965268;28;20081;-75
2022/02/27 03:08:46;;;;;;;45.38;35.95;;;4.20;91.40;;;;;;4953862;28;20488;-70
2022/02/27 03:11:15;;;;;;;23.92;15.80;;;4.20;91.50;;;;;;4968204;28;20106;-66
2022/02/27 03:13:42;;;;;;;18.38;9.73;;;4.30;91.30;;;;;;4940692;28;20459;-67
2022/02/27 03:16:09;;;;;;;9.35;4.80;;;4.20;91.10;;;;;;4940544;29;20051;-67
2022/02/27 03:18:36;;;;;;;13.50;4.72;;;4.10;91.20;;;;;;4955549;28;20478;-66
2022/02/27 03:21:05;;;;;;;8.73;3.85;;;4.10;91.40;;;;;;4940866;28;20051;-67
2022/02/27 03:23:32;;;;;;;14.30;5.80;;;4.10;91.30;;;;;;4959931;28;20421;-71
2022/02/27 03:25:59;;;;;;;7.32;4.07;;;4.10;91.30;;;;;;4970025;28;20050;-67
2022/02/27 03:28:26;;;;;;;7.80;3.67;;;4.10;91.40;;;;;;4970923;28;20582;-67
2022/02/27 03:30:53;;;;;;;12.80;3.92;;;4.10;91.50;;;;;;4954184;28;20499;-69
2022/02/27 03:33:21;;;;;;;19.38;3.78;;;4.10;91.50;;;;;;4937396;29;20055;-67
2022/02/27 03:35:48;;;;;;;12.52;4.00;;;4.10;91.60;;;;;;4939071;28;20138;-70
2022/02/27 03:38:15;;;;;;;15.25;4.40;;;4.10;91.50;;;;;;4936790;29;20047;-70
2022/02/27 03:40:41;;;;;;;23.80;7.65;;;4.00;91.70;;;;;;4943613;28;20065;-65
2022/02/27 03:43:09;;;;;;;35.67;22.73;;;4.00;91.90;;;;;;4960159;28;20081;-66
2022/02/27 03:45:35;;;;;;;23.77;12.20;;;4.10;91.90;;;;;;4938996;29;20058;-64
2022/02/27 03:48:03;;;;;;;13.88;6.53;;;4.10;91.50;;;;;;4988514;28;20047;-65
2022/02/27 03:50:30;;;;;;;12.85;4.00;;;4.10;91.70;;;;;;4956159;28;20553;-67
2022/02/27 03:52:56;;;;;;;17.75;6.82;;;4.10;91.80;;;;;;4988308;28;20085;-73
2022/02/27 03:55:23;;;;;;;12.20;4.28;;;4.00;92.00;;;;;;4957094;29;20115;-68
2022/02/27 03:57:52;;;;;;;22.67;10.60;;;4.00;92.10;;;;;;4958869;28;20126;-70
2022/02/27 04:00:19;;;;;;;14.35;5.03;;;4.00;92.30;;;;;;4960600;28;20384;-73
2022/02/27 04:02:47;;;;;;;11.27;4.80;;;3.90;92.20;;;;;;4958280;28;20054;-75
2022/02/27 04:05:15;;;;;;;9.63;4.72;;;3.90;92.40;;;;;;4944487;29;20073;-72
2022/02/27 04:07:42;;;;;;;12.43;4.13;;;3.80;92.60;;;;;;4963160;28;20129;-68
2022/02/27 04:10:09;;;;;;;7.95;3.50;;;3.80;92.80;;;;;;4960530;28;20494;-68
2022/02/27 04:12:36;;;;;;;10.75;4.28;;;3.80;92.90;;;;;;4972428;28;20054;-69
2022/02/27 04:15:07;;;;;;;7.93;3.63;;;3.80;93.10;;;;;;4970875;28;20382;-69
2022/02/27 04:17:34;;;;;;;8.90;3.53;;;3.70;93.20;;;;;;5004080;28;20049;-68
2022/02/27 04:20:03;;;;;;;11.55;4.22;;;3.70;93.40;;;;;;4987141;28;20513;-68
2022/02/27 04:22:30;;;;;;;9.73;3.92;;;3.70;93.60;;;;;;4972829;28;20141;-68
2022/02/27 04:24:57;;;;;;;9.40;3.75;;;3.70;93.70;;;;;;4975873;28;20161;-68
2022/02/27 04:27:25;;;;;;;13.25;5.00;;;3.70;93.90;;;;;;4964235;28;20106;-72
2022/02/27 04:29:52;;;;;;;13.00;4.38;;;3.60;94.00;;;;;;4955321;28;20412;-69
2022/02/27 04:32:19;;;;;;;9.48;3.85;;;3.60;94.20;;;;;;4970921;28;20055;-69
2022/02/27 04:34:46;;;;;;;12.82;4.60;;;3.60;94.30;;;;;;4987104;28;20083;-69
2022/02/27 04:37:13;;;;;;;12.85;4.45;;;3.60;94.60;;;;;;4955595;28;20046;-69
2022/02/27 04:39:40;;;;;;;12.90;4.32;;;3.60;94.70;;;;;;4927694;28;20056;-69
2022/02/27 04:42:07;;;;;;;9.60;3.58;;;3.50;94.90;;;;;;4958478;28;20058;-68
2022/02/27 04:44:34;;;;;;;13.23;4.32;;;3.50;95.20;;;;;;4939447;29;20143;-68
2022/02/27 04:47:02;;;;;;;9.77;4.03;;;3.50;95.30;;;;;;4958161;28;20043;-68
2022/02/27 04:49:31;;;;;;;9.73;4.47;;;3.50;95.50;;;;;;4987965;28;20094;-68
2022/02/27 04:51:58;;;;;;;9.50;3.72;;;3.50;95.70;;;;;;4947707;29;20051;-68
2022/02/27 04:54:25;;;;;;;11.82;3.45;;;3.40;95.90;;;;;;4939064;29;20065;-68
2022/02/27 04:56:52;;;;;;;16.90;5.53;;;3.40;96.00;;;;;;4955509;28;20063;-68
2022/02/27 04:59:19;;;;;;;10.30;4.47;;;3.40;96.10;;;;;;4986279;28;20055;-68
2022/02/27 05:01:47;;;;;;;10.77;4.05;;;3.40;96.30;;;;;;4955974;28;20124;-69
2022/02/27 05:04:15;;;;;;;13.35;4.95;;;3.40;96.40;;;;;;4985423;28;20094;-69
2022/02/27 05:06:42;;;;;;;14.10;5.25;;;3.40;96.60;;;;;;4955532;29;20061;-68
2022/02/27 05:09:12;;;;;;;13.48;4.40;;;3.40;96.70;;;;;;4955590;29;20039;-68
2022/02/27 05:11:39;;;;;;;11.57;4.20;;;3.40;96.70;;;;;;4961816;28;20487;-68
2022/02/27 05:14:05;;;;;;;10.05;4.00;;;3.40;96.90;;;;;;4955444;28;20133;-69
2022/02/27 05:16:35;;;;;;;8.20;3.60;;;3.40;97.20;;;;;;4972840;28;20059;-68
2022/02/27 05:19:02;;;;;;;12.73;4.80;;;3.40;97.30;;;;;;4965350;28;20047;-68
2022/02/27 05:21:29;;;;;;;12.30;4.63;;;3.30;97.60;;;;;;4967013;28;20078;-68
2022/02/27 05:23:56;;;;;;;9.23;4.00;;;3.30;97.90;;;;;;4940642;28;20557;-69
2022/02/27 05:26:23;;;;;;;12.82;5.43;;;3.30;98.00;;;;;;4943557;29;20039;-68
2022/02/27 05:28:52;;;;;;;15.43;4.03;;;3.30;98.10;;;;;;4957843;28;20054;-68
2022/02/27 05:31:21;;;;;;;8.02;5.95;;;3.30;98.40;;;;;;4951389;28;20047;-68
2022/02/27 05:33:48;;;;;;;10.07;4.15;;;3.30;98.50;;;;;;4939711;28;20559;-68
2022/02/27 05:36:15;;;;;;;17.02;4.95;;;3.30;98.70;;;;;;4927312;29;20086;-69
2022/02/27 05:38:42;;;;;;;13.90;4.43;;;3.40;98.80;;;;;;4984216;28;20063;-70
2022/02/27 05:41:11;;;;;;;13.38;4.32;;;3.40;98.60;;;;;;4954835;28;20055;-70
2022/02/27 05:43:37;;;;;;;7.82;3.83;;;3.40;98.60;;;;;;4955637;28;20051;-68
2022/02/27 05:46:04;;;;;;;14.35;5.00;;;3.40;98.70;;;;;;4956543;28;20410;-69
2022/02/27 05:48:32;;;;;;;11.05;4.03;;;3.40;98.60;;;;;;4953640;28;20047;-68
2022/02/27 05:50:59;;;;;;;10.82;3.60;;;3.40;98.70;;;;;;4955776;28;20047;-68
2022/02/27 05:53:26;;;;;;;11.38;4.05;;;3.40;98.70;;;;;;4966283;28;20106;-68
2022/02/27 05:55:57;;;;;;;12.77;4.22;;;3.40;98.90;;;;;;4971130;28;20063;-68
2022/02/27 05:58:25;;;;;;;15.60;4.88;;;3.40;99.10;;;;;;4956092;28;20070;-71
2022/02/27 06:00:53;;;;;;;11.75;4.55;;;3.40;99.10;;;;;;4987387;28;20058;-68
2022/02/27 06:03:20;;;;;;;11.48;4.32;;;3.40;99.10;;;;;;4955806;28;20077;-68
2022/02/27 06:05:50;;;;;;;12.45;4.93;;;3.40;99.20;;;;;;4968826;28;20213;-72
2022/02/27 06:08:17;;;;;;;13.48;4.35;;;3.40;99.40;;;;;;4959103;28;20050;-69
2022/02/27 06:10:49;;;;;;;23.63;5.25;;;3.40;99.70;;;;;;4957207;28;20537;-68
2022/02/27 06:13:16;;;;;;;7.95;3.45;;;3.40;99.80;;;;;;4943570;29;20095;-68
2022/02/27 06:15:43;;;;;;;9.45;4.25;;;3.40;99.80;;;;;;4933646;28;20418;-69
2022/02/27 06:18:10;;;;;;;14.60;5.90;;;3.40;99.80;;;;;;4951533;28;20046;-68
2022/02/27 06:20:37;;;;;;;13.15;4.10;;;3.40;99.90;;;;;;4963097;28;20055;-68
2022/02/27 06:23:04;;;;;;;13.88;5.05;;;3.40;99.90;;;;;;4945432;28;20141;-74
2022/02/27 06:25:31;;;;;;;10.93;3.67;;;3.30;99.90;;;;;;4954299;28;20047;-69
2022/02/27 06:28:00;;;;;;;11.13;3.78;;;3.40;99.90;;;;;;4960749;28;20051;-68
2022/02/27 06:30:27;;;;;;;11.10;4.20;;;3.40;99.90;;;;;;4979917;28;20051;-68
2022/02/27 06:32:55;;;;;;;10.52;5.45;;;3.40;99.90;;;;;;4954246;28;20150;-69
2022/02/27 06:35:23;;;;;;;11.75;4.43;;;3.30;99.90;;;;;;4959164;28;20054;-68
2022/02/27 06:37:52;;;;;;;11.32;4.25;;;3.30;99.90;;;;;;4960741;28;20055;-68
2022/02/27 06:40:20;;;;;;;;;;;3.30;99.90;;;;;;4960897;28;20062;-69
2022/02/27 06:42:49;;;;;;;10.98;4.00;;;3.30;99.90;;;;;;4968622;28;19922;-69
2022/02/27 06:45:17;;;;;;;10.52;3.85;;;3.30;99.90;;;;;;4970158;28;20089;-68
2022/02/27 06:47:44;;;;;;;14.55;5.28;;;3.30;99.90;;;;;;4951494;28;20050;-70
2022/02/27 06:50:12;;;;;;;17.30;4.45;;;3.40;99.90;;;;;;4936307;29;20051;-69
2022/02/27 06:52:39;;;;;;;7.15;4.20;;;3.30;99.90;;;;;;4953398;28;20055;-68
2022/02/27 06:55:08;;;;;;;10.25;3.88;;;3.40;99.90;;;;;;4947173;28;20047;-68
2022/02/27 06:57:35;;;;;;;13.55;4.57;;;3.40;99.90;;;;;;4965059;28;20478;-68
2022/02/27 07:00:04;;;;;;;13.50;4.85;;;3.40;99.90;;;;;;4969148;28;20065;-69
2022/02/27 07:02:30;;;;;;;12.57;4.25;;;3.40;99.90;;;;;;4924748;29;20399;-68
2022/02/27 07:04:59;;;;;;;11.43;4.88;;;3.30;99.90;;;;;;4953669;28;20043;-68
2022/02/27 07:07:26;;;;;;;11.85;4.45;;;3.40;99.90;;;;;;4983775;28;20508;-69
2022/02/27 07:09:55;;;;;;;14.30;5.18;;;3.30;99.90;;;;;;4984168;28;20487;-68
2022/02/27 07:12:21;;;;;;;7.40;3.80;;;3.30;99.90;;;;;;4955867;28;20509;-68
2022/02/27 07:14:48;;;;;;;12.55;5.72;;;3.40;99.90;;;;;;4952333;28;20054;-70
2022/02/27 07:17:16;;;;;;;10.13;3.75;;;3.40;99.90;;;;;;4951891;28;20050;-68
2022/02/27 07:19:44;;;;;;;15.18;5.05;;;3.40;99.90;;;;;;4983972;28;20553;-68
2022/02/27 07:22:13;;;;;;;7.32;3.70;;;3.40;99.90;;;;;;4939236;28;20095;-68
2022/02/27 07:24:40;;;;;;;12.15;5.20;;;3.40;99.90;;;;;;4953661;28;20067;-69
2022/02/27 07:27:07;;;;;;;13.93;4.25;;;3.40;99.90;;;;;;4952208;28;20055;-69
2022/02/27 07:29:34;;;;;;;12.15;4.45;;;3.40;99.90;;;;;;4934126;29;20055;-69
2022/02/27 07:32:01;;;;;;;13.13;4.30;;;3.50;99.90;;;;;;4966234;28;20047;-69
2022/02/27 07:34:28;;;;;;;15.57;5.07;;;3.50;99.90;;;;;;4958476;28;20053;-69
2022/02/27 07:36:56;;;;;;;21.05;5.65;;;3.50;99.90;;;;;;4968427;28;20053;-68
2022/02/27 07:39:23;;;;;;;10.10;4.55;;;3.40;99.90;;;;;;4949971;28;20055;-68
2022/02/27 07:41:51;;;;;;;15.43;5.85;;;3.50;99.90;;;;;;4950490;28;20058;-69
2022/02/27 07:44:22;;;;;;;17.83;5.40;;;3.50;99.90;;;;;;4938679;28;20046;-68
2022/02/27 07:46:52;;;;;;;15.32;4.93;;;3.50;99.90;;;;;;4986607;28;20054;-68
2022/02/27 07:49:20;;;;;;;12.30;4.05;;;3.50;99.90;;;;;;4957285;28;20051;-69
2022/02/27 07:51:46;;;;;;;11.35;4.07;;;3.50;99.90;;;;;;4946459;28;20055;-72
2022/02/27 07:54:13;;;;;;;12.95;4.53;;;3.50;99.90;;;;;;4940167;28;20494;-68
2022/02/27 07:56:40;;;;;;;12.18;3.72;;;3.50;99.90;;;;;;4946626;28;20044;-69
2022/02/27 07:59:08;;;;;;;10.55;3.75;;;3.50;99.90;;;;;;4934189;29;20051;-68
2022/02/27 08:01:41;;;;;;;9.80;5.10;;;3.60;99.90;;;;;;4963551;28;20046;-68
2022/02/27 08:04:08;;;;;;;10.05;3.80;;;3.60;99.90;;;;;;4956300;28;20475;-70
2022/02/27 08:06:35;;;;;;;13.57;4.50;;;3.60;99.90;;;;;;4951387;28;20112;-70
2022/02/27 08:09:03;;;;;;;13.07;4.28;;;3.70;99.90;;;;;;4973400;28;20057;-68
2022/02/27 08:11:31;;;;;;;11.93;3.88;;;3.70;99.90;;;;;;4974639;28;20051;-68
2022/02/27 08:13:58;;;;;;;12.55;5.07;;;3.80;99.90;;;;;;4936486;29;20138;-68
2022/02/27 08:16:25;;;;;;;15.48;4.80;;;3.80;99.90;;;;;;4975598;28;20055;-69
2022/02/27 08:18:52;;;;;;;12.45;5.05;;;3.90;99.90;;;;;;4953589;28;20781;-68
2022/02/27 08:21:19;;;;;;;13.98;5.45;;;3.90;99.60;;;;;;4965833;28;20501;-71
2022/02/27 08:23:46;;;;;;;13.88;4.53;;;4.00;99.50;;;;;;4939895;28;20508;-69
2022/02/27 08:26:13;;;;;;;8.50;4.40;;;4.00;98.70;;;;;;4971309;28;20077;-69
2022/02/27 08:28:41;;;;;;;8.48;4.05;;;4.00;98.70;;;;;;4964630;28;20059;-68
2022/02/27 08:31:07;;;;;;;12.15;4.75;;;4.10;98.60;;;;;;4962227;28;20486;-70
2022/02/27 08:33:36;;;;;;;8.52;3.72;;;4.20;97.80;;;;;;4939109;28;20054;-68
2022/02/27 08:36:03;;;;;;;10.25;3.70;;;4.20;97.50;;;;;;4955864;28;20083;-69
2022/02/27 08:38:30;;;;;;;10.43;3.85;;;4.20;97.80;;;;;;4970674;28;20188;-70
2022/02/27 08:40:57;;;;;;;8.25;3.50;;;4.30;97.10;;;;;;4950591;28;20051;-69
2022/02/27 08:43:26;;;;;;;13.20;3.67;;;4.30;96.50;;;;;;4951512;28;20051;-73
2022/02/27 08:45:53;;;;;;;14.50;4.70;;;4.30;96.60;;;;;;4973681;28;20133;-68
2022/02/27 08:48:23;;;;;;;6.70;3.58;;;4.40;96.00;;;;;;4966758;28;20050;-68
2022/02/27 08:50:50;;;;;;;15.25;4.78;;;4.50;95.60;;;;;;4966252;28;20110;-68
2022/02/27 08:53:17;;;;;;;10.10;3.90;;;4.50;95.40;;;;;;4925313;29;20389;-68
2022/02/27 08:55:45;;;;;;;10.00;3.67;;;4.50;94.90;;;;;;4952019;28;20073;-69
2022/02/27 08:58:12;;;;;;;6.50;3.70;;;4.60;94.70;;;;;;4957502;28;20079;-68
2022/02/27 09:00:38;;;;;;;9.73;4.95;;;4.60;94.70;;;;;;4958759;28;20130;-68
2022/02/27 09:03:06;;;;;;;10.07;3.88;;;4.70;94.10;;;;;;4962998;28;20126;-69
2022/02/27 09:05:36;;;;;;;8.73;3.47;;;4.70;93.70;;;;;;4956643;28;20514;-72
2022/02/27 09:08:03;;;;;;;11.15;3.90;;;4.80;93.50;;;;;;4985207;28;20053;-68
2022/02/27 09:10:30;;;;;;;7.78;3.70;;;4.80;94.00;;;;;;4956599;28;20058;-68
2022/02/27 09:13:00;;;;;;;12.05;3.60;;;4.90;93.70;;;;;;4965805;28;20085;-68
2022/02/27 09:15:26;;;;;;;10.00;3.67;;;4.90;92.70;;;;;;4974439;28;20411;-68
2022/02/27 09:17:53;;;;;;;12.40;4.30;;;5.00;93.20;;;;;;4968241;28;20491;-68
2022/02/27 09:20:20;;;;;;;9.63;3.45;;;5.00;92.60;;;;;;4963628;28;20061;-68
2022/02/27 09:22:49;;;;;;;12.20;4.20;;;5.00;92.60;;;;;;4963116;28;20150;-59
2022/02/27 09:25:16;;;;;;;20.58;7.68;;;5.10;92.90;;;;;;4960351;28;20193;-70
2022/02/27 09:28:03;;;;;;;25.48;14.10;;;5.20;92.40;;;;;;4981774;28;20054;-68
2022/02/27 09:30:30;;;;;;;12.90;7.82;;;5.20;92.70;;;;;;4966252;28;20048;-68
2022/02/27 09:32:57;;;;;;;9.27;5.13;;;5.30;92.20;;;;;;4969542;28;20126;-68
2022/02/27 09:35:28;;;;;;;10.52;4.28;;;5.30;92.10;;;;;;4969436;28;20467;-68
2022/02/27 09:37:57;;;;;;;11.23;4.15;;;5.40;91.90;;;;;;4960073;28;20146;-70
2022/02/27 09:40:24;;;;;;;19.50;4.43;;;5.40;91.70;;;;;;4947641;29;20134;-69
2022/02/27 09:42:54;;;;;;;6.35;3.40;;;5.40;90.70;;;;;;4960953;28;20051;-69
2022/02/27 09:45:21;;;;;;;8.90;3.80;;;5.50;90.90;;;;;;4951098;28;20137;-68
2022/02/27 09:47:49;;;;;;;12.10;4.78;;;5.60;91.00;;;;;;4926284;28;20487;-68
2022/02/27 09:50:17;;;;;;;10.05;3.50;;;5.70;90.90;;;;;;4959517;28;20047;-68
2022/02/27 09:52:45;;;;;;;16.48;6.82;;;5.70;90.40;;;;;;4947222;28;20130;-68
2022/02/27 09:55:14;;;;;;;10.48;3.60;;;5.80;90.00;;;;;;4982983;28;20138;-69
2022/02/27 09:57:46;;;;;;;9.85;3.38;;;5.90;89.80;;;;;;4968857;28;20134;-69
2022/02/27 10:00:17;;;;;;;9.50;4.00;;;5.90;87.30;;;;;;4986185;28;20109;-68
2022/02/27 10:03:06;;;;;;;13.02;3.70;;;6.00;87.80;;;;;;4950376;28;20043;-68
2022/02/27 10:05:37;;;;;;;10.25;3.42;;;6.00;87.30;;;;;;4955183;28;20416;-70
2022/02/27 10:08:05;;;;;;;13.88;7.35;;;6.10;87.30;;;;;;4984581;28;20078;-67
2022/02/27 10:10:32;;;;;;;12.98;8.80;;;6.20;87.50;;;;;;4939363;28;20055;-68
2022/02/27 10:13:00;;;;;;;21.02;7.05;;;6.30;87.00;;;;;;4965005;28;20075;-68
2022/02/27 10:15:27;;;;;;;8.73;4.30;;;6.40;86.30;;;;;;4954349;28;20051;-68
2022/02/27 10:17:56;;;;;;;7.97;3.13;;;6.50;86.30;;;;;;4964506;28;20051;-67
2022/02/27 10:20:25;;;;;;;9.90;3.25;;;6.50;84.90;;;;;;4969261;28;20047;-70
2022/02/27 10:22:55;;;;;;;10.02;3.33;;;6.50;84.30;;;;;;4949583;28;20051;-68
2022/02/27 10:25:23;;;;;;;10.93;3.30;;;6.50;83.90;;;;;;4959225;28;20049;-67
2022/02/27 10:27:55;;;;;;;10.90;3.45;;;6.50;84.00;;;;;;4957088;28;20055;-65
2022/02/27 10:30:26;;;;;;;10.40;3.72;;;6.50;83.50;;;;;;4961311;28;20138;-65
2022/02/27 10:33:11;;;;;;;10.85;3.88;;;6.60;83.00;;;;;;4959371;28;20047;-66
2022/02/27 10:35:45;;;;;;;12.10;3.30;;;6.70;84.20;;;;;;4957758;28;20074;-65
2022/02/27 10:38:15;;;;;;;11.07;3.30;;;6.70;83.20;;;;;;4959108;28;20047;-66
2022/02/27 10:40:49;;;;;;;13.05;4.13;;;6.70;80.30;;;;;;4971228;28;20125;-66
2022/02/27 10:43:17;;;;;;;8.55;3.30;;;6.80;80.10;;;;;;4968854;28;20039;-65
2022/02/27 10:45:44;;;;;;;8.20;2.90;;;6.80;81.60;;;;;;4953586;28;20073;-66
2022/02/27 10:48:19;;;;;;;8.75;3.08;;;6.90;82.10;;;;;;4954481;28;20146;-65
2022/02/27 10:50:46;;;;;;;9.88;2.88;;;6.90;80.30;;;;;;4963448;28;20067;-65
2022/02/27 10:53:14;;;;;;;7.60;2.97;;;6.90;81.00;;;;;;4956978;28;20518;-65
2022/02/27 10:55:41;;;;;;;6.75;3.00;;;7.00;79.70;;;;;;4955847;28;20051;-65
2022/02/27 10:58:09;;;;;;;13.43;3.00;;;7.00;78.40;;;;;;4956200;28;20102;-66
2022/02/27 11:00:36;;;;;;;6.78;3.25;;;7.10;78.80;;;;;;4939931;28;20051;-65
2022/02/27 11:03:05;;;;;;;5.72;3.55;;;7.10;78.30;;;;;;4952932;28;20046;-66
2022/02/27 11:05:36;;;;;;;6.77;2.63;;;7.30;79.00;;;;;;4939422;28;20055;-65
2022/02/27 11:08:08;;;;;;;12.00;3.42;;;7.40;79.20;;;;;;4967828;28;20380;-66
2022/02/27 11:10:36;;;;;;;9.88;3.45;;;7.40;78.80;;;;;;4968967;28;20051;-65
2022/02/27 11:13:11;;;;;;;7.05;3.42;;;7.40;78.90;;;;;;4961535;28;20055;-65
2022/02/27 11:15:39;;;;;;;10.60;3.53;;;7.40;78.40;;;;;;4967781;28;20051;-66
2022/02/27 11:18:06;;;;;;;9.63;4.35;;;7.50;77.90;;;;;;4935122;29;20048;-66
2022/02/27 11:20:33;;;;;;;8.50;3.83;;;7.40;78.60;;;;;;4975275;28;20043;-64
2022/02/27 11:23:00;;;;;;;12.65;6.38;;;7.50;78.00;;;;;;4952615;28;20069;-65
2022/02/27 11:25:28;;;;;;;7.82;3.67;;;7.60;77.80;;;;;;4985120;28;20049;-65
2022/02/27 11:28:11;;;;;;;9.00;3.90;;;7.50;76.20;;;;;;4941064;28;20055;-65
2022/02/27 11:30:43;;;;;;;6.93;3.60;;;7.50;76.20;;;;;;4944425;28;20126;-66
2022/02/27 11:33:13;;;;;;;9.38;3.20;;;7.50;76.40;;;;;;4942710;28;20055;-65
2022/02/27 11:35:44;;;;;;;8.13;3.30;;;7.60;75.30;;;;;;4954295;28;20043;-66
2022/02/27 11:38:23;;;;;;;8.75;3.85;;;7.60;77.40;;;;;;4981932;28;20047;-65
2022/02/27 11:40:56;;;;;;;11.23;4.40;;;7.60;74.70;;;;;;4988611;28;20047;-65
2022/02/27 11:43:42;;;;;;;8.52;3.15;;;7.70;76.40;;;;;;4961198;28;20101;-65
2022/02/27 11:46:13;;;;;;;8.25;3.00;;;7.80;75.60;;;;;;4960115;28;20122;-65
2022/02/27 11:49:10;;;;;;;8.88;3.38;;;7.90;75.60;;;;;;4973234;28;20581;-65
2022/02/27 11:51:38;;;;;;;9.45;3.65;;;7.90;75.00;;;;;;4973126;28;20055;-66
2022/02/27 11:54:10;;;;;;;7.80;2.90;;;7.90;76.30;;;;;;4974538;28;20046;-66
2022/02/27 11:56:38;;;;;;;12.45;2.92;;;7.90;76.70;;;;;;4968116;28;20051;-65
2022/02/27 11:59:06;;;;;;;9.02;2.92;;;7.90;76.00;;;;;;4975852;28;20046;-66
2022/02/27 12:01:48;;;;;;;6.43;2.67;;;8.10;75.00;;;;;;4956177;29;20426;-65
2022/02/27 12:04:24;;;;;;;7.30;2.33;;;8.10;74.50;;;;;;4959593;28;20051;-66
2022/02/27 12:07:05;;;;;;;10.00;2.95;;;8.20;71.30;;;;;;4944947;29;20044;-65
2022/02/27 12:09:48;;;;;;;7.13;2.10;;;8.20;72.80;;;;;;4973860;28;20536;-66
2022/02/27 12:12:42;;;;;;;6.68;3.00;;;8.30;70.00;;;;;;4974694;28;20078;-65
2022/02/27 12:15:18;;;;;;;6.65;3.13;;;8.30;69.40;;;;;;4949145;28;20134;-65
2022/02/27 12:17:51;;;;;;;9.05;3.38;;;8.40;71.80;;;;;;4957541;28;20051;-65
2022/02/27 12:20:58;;;;;;;6.85;2.20;;;8.60;70.60;;;;;;4957612;28;20062;-65
2022/02/27 12:23:30;;;;;;;5.95;3.63;;;9.20;68.10;;;;;;4939684;28;20562;-66
2022/02/27 12:25:58;;;;;;;8.88;2.95;;;9.00;73.10;;;;;;4955649;28;20406;-63
2022/02/27 12:28:51;;;;;;;19.35;4.30;;;9.10;70.70;;;;;;4961725;28;20047;-67
2022/02/27 12:31:18;;;;;;;8.30;2.78;;;9.10;69.20;;;;;;4957540;28;20047;-63
2022/02/27 12:33:45;;;;;;;9.52;3.42;;;9.00;70.80;;;;;;4956721;28;20073;-63
2022/02/27 12:36:36;;;;;;;5.63;2.90;;;9.10;69.70;;;;;;4961913;28;20055;-69
2022/02/27 12:39:04;;;;;;;11.23;2.95;;;9.00;70.60;;;;;;4969581;28;20082;-69
2022/02/27 12:41:33;;;;;;;10.23;2.40;;;9.10;71.00;;;;;;4970610;28;20130;-66
2022/02/27 12:44:01;;;;;;;38.13;5.30;;;9.20;70.60;;;;;;4959527;28;20047;-72
2022/02/27 12:46:29;;;;;;;27.90;13.18;;;9.20;72.10;;;;;;4965162;28;20541;-68
2022/02/27 12:51:45;;;;;;;13.70;6.60;;;9.60;68.10;;;;;;4966973;28;20435;-65
2022/02/27 12:54:30;;;;;;;9.32;4.10;;;9.50;68.30;;;;;;4947190;28;20527;-66
2022/02/27 12:56:59;;;;;;;9.70;4.40;;;9.50;69.10;;;;;;4961082;28;20395;-62
2022/02/27 12:59:27;;;;;;;113.18;88.80;;;9.40;70.80;;;;;;4956919;28;20051;-66
2022/02/27 13:01:55;;;;;;;23.70;12.35;;;9.30;68.10;;;;;;4964188;28;20466;-65